Terminal Aerodrome Forecast
Issued by NWS

Home | Current Version | Previous Version | Text Only | Print | Product List | Glossary On
Versions: 1 2 3 4 5 6 7 8 9 10 11 12 13 14 15 16
980
FTUS43 KICT 182338
TAFSLN
TAF
KSLN 182338Z 1900/1924 17008KT P6SM SCT080
     FM190400 16007KT P6SM BKN050
     FM190600 16007KT 5SM BR SCT025
     FM190900 16007KT 3SM BR OVC015
     FM191100 16007KT 1SM BR OVC004
     FM191700 16007KT 3SM BR OVC007
     FM192100 16008KT P6SM SCT015=

USA.gov is the U.S. government's official web portal to all federal, state and local government web resources and services.